createdAt,value
2023-05-05T00:02:29.042Z,6.57
2023-05-05T00:04:58.875Z,7.50
2023-05-05T00:07:28.687Z,6.53
2023-05-05T00:09:58.788Z,7.20
2023-05-05T00:12:28.623Z,7.07
2023-05-05T00:14:58.974Z,7.00
2023-05-05T00:17:28.814Z,7.13
2023-05-05T00:19:59.706Z,7.40
2023-05-05T00:22:29.745Z,7.50
2023-05-05T00:24:59.565Z,7.47
2023-05-05T00:27:29.343Z,8.07
2023-05-05T00:29:59.233Z,8.30
2023-05-05T00:32:29.069Z,7.63
2023-05-05T00:34:58.864Z,8.73
2023-05-05T00:37:28.666Z,9.30
2023-05-05T00:39:58.367Z,8.85
2023-05-05T00:42:28.448Z,8.60
2023-05-05T00:44:58.620Z,9.30
2023-05-05T00:47:28.433Z,9.30
2023-05-05T00:49:58.372Z,9.60
2023-05-05T00:52:28.344Z,10.80
2023-05-05T00:54:59.205Z,10.27
2023-05-05T00:57:29.262Z,10.53
2023-05-05T01:00:01.284Z,10.87
2023-05-05T01:02:31.391Z,11.80
2023-05-05T01:05:02.110Z,12.23
2023-05-05T01:07:40.914Z,12.60
2023-05-05T01:10:38.385Z,13.43
2023-05-05T01:13:20.476Z,13.25
2023-05-05T01:15:53.512Z,12.87
2023-05-05T01:18:34.877Z,12.87
2023-05-05T01:21:16.725Z,14.43
2023-05-05T01:23:55.505Z,14.17
2023-05-05T01:26:56.601Z,14.80
2023-05-05T01:29:44.100Z,14.93
2023-05-05T01:32:16.174Z,14.70
2023-05-05T01:34:51.873Z,14.73
2023-05-05T01:37:24.423Z,15.57
2023-05-05T01:39:57.288Z,15.40
2023-05-05T01:42:28.661Z,16.05
2023-05-05T01:44:59.604Z,14.95
2023-05-05T01:47:30.865Z,15.60
2023-05-05T01:50:02.388Z,16.12
2023-05-05T01:52:34.035Z,15.43
2023-05-05T01:55:05.558Z,15.87
2023-05-05T01:57:36.801Z,15.57
2023-05-05T02:00:09.776Z,17.13
2023-05-05T02:02:49.815Z,15.93
2023-05-05T02:05:23.414Z,15.10
2023-05-05T02:07:56.374Z,15.90
2023-05-05T02:10:26.220Z,16.13
2023-05-05T02:12:56.698Z,16.40
2023-05-05T02:15:28.644Z,16.07
2023-05-05T02:18:00.311Z,16.32
2023-05-05T02:20:32.299Z,15.97
2023-05-05T02:23:02.224Z,15.33
2023-05-05T02:25:34.818Z,17.65
2023-05-05T02:28:09.780Z,16.45
2023-05-05T02:30:41.616Z,16.43
2023-05-05T02:33:14.310Z,15.93
2023-05-05T02:35:47.822Z,16.77
2023-05-05T02:38:18.680Z,17.00
2023-05-05T02:40:52.056Z,17.57
2023-05-05T02:43:25.253Z,17.40
2023-05-05T02:45:55.063Z,16.07
2023-05-05T02:48:25.147Z,14.43
2023-05-05T02:50:55.593Z,15.00
2023-05-05T02:53:28.821Z,15.53
2023-05-05T02:56:07.159Z,15.30
2023-05-05T02:58:50.677Z,16.20
2023-05-05T03:01:29.014Z,15.97
2023-05-05T03:04:05.811Z,15.10
2023-05-05T03:06:42.577Z,14.67
2023-05-05T03:09:15.815Z,15.03
2023-05-05T03:12:02.040Z,15.67
2023-05-05T03:14:40.769Z,14.45
2023-05-05T03:17:13.676Z,14.45
2023-05-05T03:19:45.055Z,14.37
2023-05-05T03:22:15.142Z,15.30
2023-05-05T03:24:51.469Z,14.80
2023-05-05T03:29:51.600Z,15.10
2023-05-05T03:32:24.019Z,13.85
2023-05-05T03:34:55.586Z,14.53
2023-05-05T03:37:27.209Z,14.83
2023-05-05T03:39:57.000Z,13.60
2023-05-05T03:42:26.984Z,13.62
2023-05-05T03:44:57.200Z,13.07
2023-05-05T03:47:27.805Z,13.78
2023-05-05T03:49:58.420Z,13.57
2023-05-05T03:52:28.488Z,12.70
2023-05-05T03:54:59.970Z,13.40
2023-05-05T03:57:30.059Z,12.47
2023-05-05T03:59:59.902Z,13.53
2023-05-05T04:02:30.004Z,12.17
2023-05-05T04:05:00.292Z,13.03
2023-05-05T04:07:30.442Z,12.23
2023-05-05T04:10:00.386Z,10.80
2023-05-05T04:12:30.380Z,10.68
2023-05-05T04:15:00.351Z,10.00
2023-05-05T04:17:30.330Z,9.20
2023-05-05T04:20:00.653Z,8.67
2023-05-05T04:22:32.392Z,8.80
2023-05-05T04:25:02.369Z,7.90
2023-05-05T04:27:32.632Z,7.75
2023-05-05T04:30:02.622Z,8.07
2023-05-05T04:32:32.780Z,7.37
2023-05-05T04:35:02.574Z,5.87
2023-05-05T04:37:32.690Z,5.57
2023-05-05T04:40:02.796Z,5.43
2023-05-05T04:42:33.890Z,5.60
2023-05-05T04:45:04.194Z,4.90
2023-05-05T04:47:38.818Z,4.40
2023-05-05T04:50:11.501Z,4.50
2023-05-05T04:52:41.577Z,4.23
2023-05-05T04:55:11.684Z,4.20
2023-05-05T04:57:41.505Z,3.67
2023-05-05T05:00:12.762Z,4.18
2023-05-05T05:02:42.638Z,4.17
2023-05-05T05:05:12.448Z,4.40
2023-05-05T05:07:41.979Z,3.95
2023-05-05T05:10:13.456Z,3.90
2023-05-05T05:12:43.296Z,3.70
2023-05-05T05:15:14.575Z,3.62
2023-05-05T05:17:44.420Z,4.30
2023-05-05T05:20:15.394Z,4.55
2023-05-05T05:22:46.114Z,4.50
2023-05-05T05:25:17.731Z,5.17
2023-05-05T05:27:58.535Z,3.67
2023-05-05T05:30:21.036Z,4.33
2023-05-05T05:32:50.916Z,4.97
2023-05-05T05:35:20.860Z,4.83
2023-05-05T05:37:51.715Z,4.95
2023-05-05T05:40:21.412Z,4.67
2023-05-05T05:42:51.270Z,5.33
2023-05-05T05:45:21.649Z,4.90
2023-05-05T05:47:51.946Z,5.25
2023-05-05T05:50:22.337Z,5.53
2023-05-05T05:52:52.153Z,5.70
2023-05-05T05:55:22.000Z,5.95
2023-05-05T05:57:52.299Z,5.70
2023-05-05T06:00:22.375Z,5.60
2023-05-05T06:02:53.952Z,6.50
2023-05-05T06:05:25.163Z,6.77
2023-05-05T06:07:55.552Z,7.00
2023-05-05T06:10:28.525Z,6.93
2023-05-05T06:12:59.980Z,7.65
2023-05-05T06:15:30.066Z,7.60
2023-05-05T06:18:00.599Z,7.73
2023-05-05T06:20:30.548Z,8.63
2023-05-05T06:23:00.548Z,8.10
2023-05-05T06:25:30.998Z,8.43
2023-05-05T06:28:00.861Z,8.97
2023-05-05T06:30:30.828Z,8.98
2023-05-05T06:33:00.746Z,9.03
2023-05-05T06:35:30.539Z,9.83
2023-05-05T06:38:00.423Z,10.23
2023-05-05T06:40:30.093Z,10.53
2023-05-05T06:42:59.642Z,10.55
2023-05-05T06:45:31.200Z,11.10
2023-05-05T06:48:01.011Z,10.10
2023-05-05T06:50:30.956Z,10.17
2023-05-05T06:53:01.267Z,11.30
2023-05-05T06:55:31.529Z,11.73
2023-05-05T06:58:01.353Z,11.93
2023-05-05T07:00:31.658Z,12.70
2023-05-05T07:03:01.809Z,13.83
2023-05-05T07:05:31.711Z,14.70
2023-05-05T07:08:01.847Z,13.35
2023-05-05T07:10:33.061Z,12.33
2023-05-05T07:13:02.868Z,12.97
2023-05-05T07:15:32.679Z,12.77
2023-05-05T07:18:02.523Z,13.40
2023-05-05T07:20:32.148Z,12.60
2023-05-05T07:23:01.701Z,12.65
2023-05-05T07:25:31.811Z,12.82
2023-05-05T07:28:01.693Z,12.30
2023-05-05T07:30:31.826Z,10.93
2023-05-05T07:33:01.766Z,11.43
2023-05-05T07:35:31.662Z,10.97
2023-05-05T07:38:01.460Z,10.73
2023-05-05T07:40:31.307Z,10.38
2023-05-05T07:43:01.320Z,9.50
2023-05-05T07:45:31.400Z,9.57
2023-05-05T07:48:01.281Z,8.87
2023-05-05T07:50:30.819Z,7.67
2023-05-05T07:53:10.762Z,8.23
2023-05-05T07:55:32.072Z,8.33
2023-05-05T07:58:03.651Z,7.60
2023-05-05T08:00:33.228Z,7.42
2023-05-05T08:03:03.054Z,7.53
2023-05-05T08:05:32.964Z,7.08
2023-05-05T08:08:03.657Z,6.13
2023-05-05T08:10:33.155Z,6.50
2023-05-05T08:13:03.130Z,6.23
2023-05-05T08:15:32.944Z,6.87
2023-05-05T08:18:02.853Z,6.50
2023-05-05T08:20:32.504Z,6.75
2023-05-05T08:23:02.310Z,6.33
2023-05-05T08:25:31.853Z,6.95
2023-05-05T08:28:01.505Z,7.05
2023-05-05T08:30:31.809Z,6.27
2023-05-05T08:33:01.735Z,7.27
2023-05-05T08:35:31.980Z,7.37
2023-05-05T08:38:01.549Z,6.40
2023-05-05T08:40:37.558Z,5.27
2023-05-05T08:43:07.610Z,5.08
2023-05-05T08:45:39.867Z,5.45
2023-05-05T08:48:10.333Z,4.93
2023-05-05T08:50:41.009Z,4.70
2023-05-05T08:53:13.280Z,4.30
2023-05-05T08:55:53.238Z,4.85
2023-05-05T08:58:25.538Z,3.60
2023-05-05T09:00:57.432Z,4.60
2023-05-05T09:03:28.541Z,3.70
2023-05-05T09:05:58.752Z,3.70
2023-05-05T09:08:30.183Z,4.35
2023-05-05T09:11:01.840Z,3.60
2023-05-05T09:13:32.061Z,3.37
2023-05-05T09:16:01.853Z,4.40
2023-05-05T09:18:31.686Z,5.37
2023-05-05T09:21:02.038Z,4.80
2023-05-05T09:23:31.826Z,2.50
2023-05-05T09:26:08.122Z,2.80
2023-05-05T09:28:38.206Z,3.60
2023-05-05T09:31:17.085Z,4.20
2023-05-05T09:33:47.748Z,4.80
2023-05-05T09:36:17.633Z,4.30
2023-05-05T09:38:50.179Z,3.70
2023-05-05T09:41:23.003Z,4.20
2023-05-05T09:43:53.200Z,4.63
2023-05-05T09:46:23.463Z,4.33
2023-05-05T09:48:53.311Z,4.10
2023-05-05T09:51:32.490Z,4.33
2023-05-05T09:54:02.476Z,4.23
2023-05-05T09:56:41.353Z,4.00
2023-05-05T09:59:12.163Z,3.87
2023-05-05T10:01:43.678Z,4.17
2023-05-05T10:04:29.962Z,4.00
2023-05-05T10:07:00.188Z,4.30
2023-05-05T10:09:32.084Z,4.00
2023-05-05T10:12:02.457Z,4.22
2023-05-05T10:14:34.836Z,4.10
2023-05-05T10:17:04.975Z,4.50
2023-05-05T10:19:37.003Z,4.53
2023-05-05T10:22:11.433Z,4.30
2023-05-05T10:24:50.117Z,4.57
2023-05-05T10:27:24.563Z,5.00
2023-05-05T10:29:57.164Z,5.10
2023-05-05T10:32:57.467Z,5.43
2023-05-05T10:35:28.680Z,5.72
2023-05-05T10:38:00.989Z,4.97
2023-05-05T10:40:32.209Z,5.70
2023-05-05T10:43:02.241Z,4.75
2023-05-05T10:45:32.596Z,4.90
2023-05-05T10:48:05.591Z,5.00
2023-05-05T10:50:44.052Z,4.33
2023-05-05T10:53:28.750Z,4.40
2023-05-05T10:56:13.419Z,4.50
2023-05-05T10:58:55.600Z,4.57
2023-05-05T11:01:17.779Z,4.57
2023-05-05T11:03:47.599Z,4.47
2023-05-05T11:06:17.434Z,4.00
2023-05-05T11:08:47.307Z,3.70
2023-05-05T11:11:17.383Z,4.25
2023-05-05T11:13:47.453Z,3.80
2023-05-05T11:16:46.883Z,3.97
2023-05-05T11:19:45.580Z,2.73
2023-05-05T11:22:16.612Z,0.88
2023-05-05T11:24:47.173Z,1.10
2023-05-05T11:27:17.020Z,1.27
2023-05-05T11:30:06.979Z,1.50
2023-05-05T11:32:36.935Z,1.17
2023-05-05T11:35:08.691Z,1.53
2023-05-05T11:37:39.284Z,1.33
2023-05-05T11:40:23.550Z,1.70
2023-05-05T11:42:56.130Z,1.90
2023-05-05T11:45:26.401Z,1.50
2023-05-05T11:48:16.197Z,1.95
2023-05-05T11:50:46.218Z,1.87
2023-05-05T11:53:16.219Z,1.70
2023-05-05T11:55:46.028Z,2.70
2023-05-05T11:58:22.343Z,1.60
2023-05-05T12:00:52.312Z,1.70
2023-05-05T12:03:22.561Z,2.10
2023-05-05T12:05:56.823Z,2.10
2023-05-05T12:08:27.016Z,2.27
2023-05-05T12:11:11.552Z,2.27
2023-05-05T12:13:41.701Z,2.17
2023-05-05T12:16:16.225Z,2.18
2023-05-05T12:18:46.030Z,3.03
2023-05-05T12:21:19.417Z,2.40
2023-05-05T12:23:49.581Z,2.58
2023-05-05T12:26:32.638Z,2.50
2023-05-05T12:29:03.110Z,2.62
2023-05-05T12:31:40.133Z,2.70
2023-05-05T12:34:11.873Z,2.60
2023-05-05T12:36:42.269Z,2.20
2023-05-05T12:39:12.264Z,2.47
2023-05-05T12:41:42.033Z,2.55
2023-05-05T12:44:12.119Z,2.45
2023-05-05T12:46:48.699Z,2.23
2023-05-05T12:49:18.374Z,2.50
2023-05-05T12:51:55.476Z,2.17
2023-05-05T12:54:27.333Z,2.42
2023-05-05T12:56:58.440Z,2.03
2023-05-05T12:59:30.729Z,2.25
2023-05-05T13:02:03.940Z,2.30
2023-05-05T13:04:33.828Z,2.47
2023-05-05T13:07:19.052Z,2.73
2023-05-05T13:09:51.035Z,2.55
2023-05-05T13:12:22.182Z,2.17
2023-05-05T13:14:52.639Z,3.02
2023-05-05T13:17:23.022Z,3.10
2023-05-05T13:19:52.980Z,2.77
2023-05-05T13:22:22.787Z,3.27
2023-05-05T13:24:53.083Z,3.25
2023-05-05T13:27:23.552Z,3.27
2023-05-05T13:29:53.352Z,3.30
2023-05-05T13:32:22.887Z,3.70
2023-05-05T13:34:53.017Z,3.60
2023-05-05T13:37:22.862Z,3.30
2023-05-05T13:39:52.453Z,3.47
2023-05-05T13:42:22.277Z,4.03
2023-05-05T13:44:52.373Z,3.52
2023-05-05T13:47:22.436Z,2.93
2023-05-05T13:49:52.694Z,3.02
2023-05-05T13:52:22.457Z,2.10
2023-05-05T13:54:53.060Z,2.00
2023-05-05T13:57:23.601Z,2.20
2023-05-05T13:59:53.397Z,2.83
2023-05-05T14:02:22.984Z,2.50
2023-05-05T14:04:52.806Z,1.83
2023-05-05T14:07:22.604Z,2.13
2023-05-05T14:09:52.385Z,2.20
2023-05-05T14:12:23.545Z,1.53
2023-05-05T14:14:53.594Z,1.80
2023-05-05T14:17:23.417Z,2.03
2023-05-05T14:19:53.255Z,1.60
2023-05-05T14:22:23.067Z,1.40
2023-05-05T14:24:52.867Z,1.37
2023-05-05T14:27:22.672Z,1.20
2023-05-05T14:29:52.460Z,1.60
2023-05-05T14:32:22.936Z,1.60
2023-05-05T14:34:52.842Z,1.27
2023-05-05T14:37:22.702Z,1.10
2023-05-05T14:39:52.865Z,1.52
2023-05-05T14:42:22.389Z,1.20
2023-05-05T14:44:52.177Z,1.47
2023-05-05T14:47:21.984Z,1.20
2023-05-05T14:49:51.857Z,1.70
2023-05-05T14:52:21.701Z,1.27
2023-05-05T14:54:51.795Z,0.95
2023-05-05T14:57:21.969Z,0.90
2023-05-05T14:59:53.062Z,1.13
2023-05-05T15:02:23.224Z,1.20
2023-05-05T15:04:53.084Z,1.03
2023-05-05T15:07:24.638Z,1.10
2023-05-05T15:09:54.890Z,1.10
2023-05-05T15:12:25.943Z,0.90
2023-05-05T15:14:55.491Z,1.00
2023-05-05T15:17:26.029Z,0.93
2023-05-05T15:19:57.363Z,1.00
2023-05-05T15:22:26.870Z,1.47
2023-05-05T15:24:56.756Z,1.20
2023-05-05T15:27:26.896Z,1.33
2023-05-05T15:29:56.781Z,1.10
2023-05-05T15:32:26.644Z,1.10
2023-05-05T15:34:56.656Z,1.10
2023-05-05T15:37:28.300Z,1.20
2023-05-05T15:39:58.095Z,1.20
2023-05-05T15:42:27.868Z,1.37
2023-05-05T15:44:57.660Z,1.00
2023-05-05T15:47:27.574Z,0.73
2023-05-05T15:49:57.398Z,1.20
2023-05-05T15:52:27.175Z,1.53
2023-05-05T15:54:56.963Z,1.10
2023-05-05T15:57:26.966Z,1.27
2023-05-05T15:59:56.849Z,1.20
2023-05-05T16:02:26.734Z,1.40
2023-05-05T16:04:56.584Z,1.30
2023-05-05T16:07:26.924Z,1.30
2023-05-05T16:09:56.899Z,1.57
2023-05-05T16:12:26.690Z,1.57
2023-05-05T16:14:56.489Z,1.73
2023-05-05T16:17:26.389Z,1.80
2023-05-05T16:19:56.517Z,1.70
2023-05-05T16:22:26.152Z,1.77
2023-05-05T16:24:55.966Z,1.50
2023-05-05T16:27:26.422Z,1.50
2023-05-05T16:29:58.393Z,1.80
2023-05-05T16:32:28.010Z,1.70
2023-05-05T16:34:57.864Z,1.43
2023-05-05T16:37:27.683Z,1.73
2023-05-05T16:39:57.464Z,1.60
2023-05-05T16:42:27.256Z,1.37
2023-05-05T16:44:57.060Z,1.67
2023-05-05T16:47:27.250Z,1.50
2023-05-05T16:49:57.110Z,1.70
2023-05-05T16:52:26.909Z,0.93
2023-05-05T16:54:57.171Z,1.23
2023-05-05T16:57:27.690Z,1.27
2023-05-05T16:59:57.485Z,1.00
2023-05-05T17:02:27.041Z,1.40
2023-05-05T17:04:56.876Z,1.70
2023-05-05T17:07:26.460Z,1.65
2023-05-05T17:09:56.402Z,1.80
2023-05-05T17:12:26.176Z,2.00
2023-05-05T17:14:56.016Z,1.80
2023-05-05T17:17:26.063Z,1.70
2023-05-05T17:19:55.885Z,1.47
2023-05-05T17:22:25.722Z,1.50
2023-05-05T17:24:55.527Z,1.40
2023-05-05T17:27:25.416Z,1.90
2023-05-05T17:29:55.303Z,1.40
2023-05-05T17:32:25.194Z,1.53
2023-05-05T17:34:56.258Z,1.40
2023-05-05T17:37:26.123Z,1.23
2023-05-05T17:39:55.968Z,1.37
2023-05-05T17:42:27.029Z,1.70
2023-05-05T17:44:56.818Z,1.87
2023-05-05T17:47:26.893Z,2.23
2023-05-05T17:49:57.859Z,2.07
2023-05-05T17:52:27.657Z,2.13
2023-05-05T17:54:57.562Z,2.10
2023-05-05T17:57:27.383Z,2.07
2023-05-05T17:59:57.169Z,2.13
2023-05-05T18:02:27.423Z,2.05
2023-05-05T18:04:57.511Z,2.47
2023-05-05T18:07:28.354Z,2.80
2023-05-05T18:09:58.492Z,2.55
2023-05-05T18:12:28.289Z,3.07
2023-05-05T18:14:58.057Z,2.70
2023-05-05T18:17:27.853Z,3.10
2023-05-05T18:19:57.968Z,3.10
2023-05-05T18:22:27.872Z,3.17
2023-05-05T18:24:59.546Z,2.80
2023-05-05T18:27:31.642Z,3.00
2023-05-05T18:30:02.083Z,2.72
2023-05-05T18:32:32.225Z,3.00
2023-05-05T18:35:02.339Z,3.27
2023-05-05T18:37:32.441Z,2.90
2023-05-05T18:40:03.159Z,3.47
2023-05-05T18:42:33.254Z,3.35
2023-05-05T18:45:03.335Z,3.65
2023-05-05T18:47:33.799Z,4.45
2023-05-05T18:50:04.180Z,5.05
2023-05-05T18:52:34.707Z,5.10
2023-05-05T18:55:06.100Z,4.25
2023-05-05T18:57:35.916Z,3.63
2023-05-05T19:00:08.487Z,3.67
2023-05-05T19:02:38.681Z,4.33
2023-05-05T19:05:09.143Z,11.67
2023-05-05T19:07:39.055Z,7.97
2023-05-05T19:10:09.812Z,4.87
2023-05-05T19:12:39.387Z,3.75
2023-05-05T19:15:09.586Z,3.87
2023-05-05T19:17:39.457Z,3.85
2023-05-05T19:20:09.624Z,3.80
2023-05-05T19:22:39.432Z,4.40
2023-05-05T19:25:09.662Z,3.87
2023-05-05T19:27:39.671Z,4.40
2023-05-05T19:30:10.295Z,4.03
2023-05-05T19:32:39.867Z,4.10
2023-05-05T19:35:10.479Z,4.17
2023-05-05T19:37:40.660Z,3.83
2023-05-05T19:40:10.959Z,3.80
2023-05-05T19:42:41.058Z,4.67
2023-05-05T19:45:10.699Z,5.84
2023-05-05T19:47:40.599Z,5.30
2023-05-05T19:50:11.535Z,4.12
2023-05-05T19:52:41.792Z,3.77
2023-05-05T19:55:12.831Z,3.55
2023-05-05T19:57:42.412Z,4.10
2023-05-05T20:00:12.502Z,3.87
2023-05-05T20:02:44.572Z,4.10
2023-05-05T20:05:16.320Z,4.40
2023-05-05T20:07:46.997Z,5.23
2023-05-05T20:10:19.422Z,4.30
2023-05-05T20:12:50.121Z,4.17
2023-05-05T20:15:21.682Z,3.75
2023-05-05T20:17:51.553Z,3.63
2023-05-05T20:20:23.946Z,4.40
2023-05-05T20:22:53.458Z,4.00
2023-05-05T20:25:23.273Z,3.92
2023-05-05T20:27:53.076Z,4.57
2023-05-05T20:30:22.929Z,3.90
2023-05-05T20:32:53.457Z,4.13
2023-05-05T20:35:23.147Z,4.10
2023-05-05T20:37:52.925Z,4.33
2023-05-05T20:40:22.882Z,4.37
2023-05-05T20:42:52.693Z,4.97
2023-05-05T20:45:22.289Z,5.10
2023-05-05T20:47:52.470Z,5.07
2023-05-05T20:50:22.426Z,4.80
2023-05-05T20:52:52.351Z,5.20
2023-05-05T20:55:22.206Z,4.67
2023-05-05T20:57:52.005Z,5.67
2023-05-05T21:00:21.902Z,5.67
2023-05-05T21:02:51.769Z,5.57
2023-05-05T21:05:22.197Z,4.85
2023-05-05T21:07:53.563Z,6.13
2023-05-05T21:10:23.478Z,6.70
2023-05-05T21:12:53.410Z,6.53
2023-05-05T21:15:23.027Z,6.87
2023-05-05T21:17:52.938Z,7.20
2023-05-05T21:20:23.125Z,7.50
2023-05-05T21:22:52.985Z,7.07
2023-05-05T21:25:23.035Z,6.58
2023-05-05T21:27:52.522Z,5.78
2023-05-05T21:30:24.556Z,6.00
2023-05-05T21:32:54.406Z,6.10
2023-05-05T21:35:24.245Z,5.80
2023-05-05T21:37:54.050Z,6.20
2023-05-05T21:40:23.737Z,6.92
2023-05-05T21:42:53.302Z,6.70
2023-05-05T21:45:23.234Z,6.40
2023-05-05T21:47:53.110Z,6.80
2023-05-05T21:50:23.085Z,6.67
2023-05-05T21:52:52.866Z,6.57
2023-05-05T21:55:22.361Z,7.87
2023-05-05T21:57:52.156Z,6.97
2023-05-05T22:00:22.231Z,7.20
2023-05-05T22:02:52.189Z,7.37
2023-05-05T22:05:22.206Z,7.78
2023-05-05T22:07:52.030Z,7.57
2023-05-05T22:10:21.644Z,7.15
2023-05-05T22:12:51.913Z,7.40
2023-05-05T22:15:25.351Z,7.58
2023-05-05T22:17:54.516Z,8.70
2023-05-05T22:20:24.465Z,8.60
2023-05-05T22:22:54.266Z,8.93
2023-05-05T22:25:24.309Z,8.25
2023-05-05T22:27:54.093Z,9.07
2023-05-05T22:30:25.620Z,8.58
2023-05-05T22:32:55.439Z,8.73
2023-05-05T22:35:25.245Z,8.60
2023-05-05T22:37:55.032Z,9.10
2023-05-05T22:40:24.929Z,8.90
2023-05-05T22:42:55.081Z,9.05
2023-05-05T22:45:24.754Z,9.93
2023-05-05T22:47:55.439Z,9.07
2023-05-05T22:50:25.646Z,9.60
2023-05-05T22:52:55.531Z,9.93
2023-05-05T22:55:25.172Z,9.93
2023-05-05T22:57:55.352Z,9.25
2023-05-05T23:00:25.334Z,9.57
2023-05-05T23:02:55.427Z,10.97
2023-05-05T23:05:25.369Z,10.10
2023-05-05T23:07:55.192Z,10.67
2023-05-05T23:10:25.286Z,11.65
2023-05-05T23:12:55.141Z,12.43
2023-05-05T23:15:25.089Z,12.58
2023-05-05T23:17:54.923Z,13.10
2023-05-05T23:20:23.466Z,14.30
2023-05-05T23:22:52.809Z,13.05
2023-05-05T23:25:22.324Z,14.15
2023-05-05T23:27:52.124Z,13.97
2023-05-05T23:30:21.765Z,13.70
2023-05-05T23:32:51.604Z,14.43
2023-05-05T23:35:21.731Z,13.80
2023-05-05T23:37:51.513Z,15.07
2023-05-05T23:40:22.547Z,15.13
2023-05-05T23:42:52.344Z,15.10
2023-05-05T23:45:21.846Z,15.57
2023-05-05T23:47:52.339Z,15.20
2023-05-05T23:50:22.621Z,15.13
2023-05-05T23:52:52.542Z,15.43
2023-05-05T23:55:22.301Z,15.58
2023-05-05T23:57:53.024Z,16.00
